Nearby METAR Reports

 

EGNM - Leeds And Bradford, United Kingdom
Distance from station: N 11mi, 18km
Updated: 22/10/2018 16:20
Few Clouds
Few Clouds
 Wind from W
Wind: W 18 mph , 30 km/h
Temperature: 10°C
Wind Chill: 7°C
Dew Point: 5°C
Humidity: 71%
Barometer: 1035 hPa
Clouds: Few Clouds
Visibility: 6 miles , 10 km
Cloud details: Few Clouds 823 m
2018/10/22 15:20 EGNM 221520Z 27016KT 9999 FEW027 10/05 Q1035
EGXG - Church Fenton, United Kingdom
Distance from station: ENE 19mi, 31km
Updated: 19/12/2013 08:50
NOT Current
Clear
Clear
 Wind from SW
Wind: SW 16 mph , 26 km/h
Temperature: 4°C
Wind Chill: -1°C
Dew Point: -1°C
Humidity: 70%
Barometer: 996 hPa
Clouds: Clear
Visibility: 6 miles , 10 km
2013/12/19 08:50 EGXG 190850Z AUTO 23014KT 9999 NCD 04/M01 Q0996
 
EGXU - Linton-On-Ouse, United Kingdom
Distance from station: NNE 28mi, 45km
Updated: 22/10/2018 15:50
Few Clouds
Few Clouds
 Wind from W
Wind: W 10 mph , 17 km/h
Temperature: 13°C
Dew Point: 6°C
Humidity: 63%
Barometer: 1035 hPa
Clouds: Few Clouds
Visibility: 6 miles , 10 km
Cloud details: Few Clouds 975 m
2018/10/22 14:50 EGXU 221450Z 28009KT 9999 FEW032 13/06 Q1035 BLU NOSIG
EGCN - Doncaster Sheffield, United Kingdom
Distance from station: ESE 30mi, 45km
Updated: 22/10/2018 16:20
Few Clouds
Few Clouds
 Wind from W
Wind: W 14 mph , 22 km/h
Temperature: 13°C
Dew Point: 5°C
Humidity: 59%
Barometer: 1037 hPa
Clouds: Few Clouds
Visibility: 6 miles , 10 km
Cloud details: Few Clouds 1097 m
2018/10/22 15:20 EGCN 221520Z 27012KT 9999 FEW036 13/05 Q1037
 
EGXD - Dishforth RAF, United Kingdom
Distance from station: NNE 31mi, 49km
Updated: 06/06/2016 10:50
NOT Current
Clear
Clear
 Wind from SSE
Wind: SSE 5 mph , 7 km/h
Temperature: 18°C
Dew Point: 11°C
Humidity: 64%
Barometer: 1023 hPa
Clouds: Clear
Visibility: 6 miles , 10 km
2016/06/06 09:50 EGXD 060950Z AUTO 16004KT 9999 // NCD 18/11 Q1023
EGXZ - Topcliffe RAF, United Kingdom
Distance from station: NNE 36mi, 57km
Updated: 22/10/2018 15:50
Partly cloudy
Partly cloudy
 Wind from W
Wind: W 13 mph , 20 km/h
Temperature: 13°C
Dew Point: 6°C
Humidity: 63%
Barometer: 1035 hPa
Clouds: Partly cloudy
Visibility: 6 miles , 10 km
Cloud details: Partly cloudy 1067 m
2018/10/22 14:50 EGXZ 221450Z 26011KT 9999 SCT035 13/06 Q1035 BLU
 
EGCC - Manchester Intl, United Kingdom
Distance from station: SW 36mi, 58km
Updated: 22/10/2018 16:20
Partly cloudy
Partly cloudy
 Wind from WNW
Wind: WNW 12 mph , 19 km/h
Temperature: 12°C
Dew Point: 5°C
Humidity: 63%
Barometer: 1037 hPa
Clouds: Partly cloudy
Visibility: 6 miles , 10 km
Cloud details: Few Clouds 1006 m
Partly cloudy 1189 m
2018/10/22 15:20 EGCC 221520Z AUTO 29010KT 9999 FEW033 SCT039 12/05 Q1037 NOSIG
EGXE - Leeming RAF, United Kingdom
Distance from station: N 40mi, 65km
Updated: 22/10/2018 15:50
Few Clouds
Few Clouds
 Wind from WSW
Wind: WSW 12 mph , 19 km/h
Temperature: 13°C
Dew Point: 6°C
Humidity: 63%
Barometer: 1035 hPa
Clouds: Few Clouds
Visibility: 6 miles , 10 km
Cloud details: Few Clouds 1036 m
2018/10/22 14:50 EGXE 221450Z 25010KT 9999 FEW034 13/06 Q1035 BLU TEMPO 26012G22KT BLU